Startpagina
METAR-TAF:

METAR-TAF

Vliegvelden :

Szczecin, Polen

breedte: 53-35N, lengte: 014-54E, hoogte: 1 m

Actueel weer

Dit bericht is 33 minuten geleden gemaakt, om 11:00 UTC
Wind 13 kt uit het noorden, variërend tussen het noordnoordwesten en het oostnoordoosten
Temperatuur 15°C
Vochtigheid 51%
Druk 1024 hPa
Zicht 10 km of meer
Verspreide wolken op 3300 ft

METAR: EPSC 301100Z 01013KT 340V070 9999 SCT033 15/05 Q1024

Tijdstip: 13:33 (11:33 UTC)

Verwachting

Dit bericht is 6 uur en het 3 minuten geleden gemaakt, om 05:30 UTC
Verwachting geldig van 30 om 06 UTC tot 31 om 06 UTC
Wind 4 kt uit het noorden
Zicht 10 km of meer
geen wolken onder 1500 m en geen cumulonimbus
Wijzigt naar
van 30 om 06 UTC tot 30 om 09 UTC
Wind 14 kt uit het noorden
Tijdelijke
van 30 om 09 UTC tot 30 om 16 UTC
Wind 18 kt uit het noorden met uitschieters tot 30 kt

TAF: EPSC 300530Z 3006/3106 35004KT CAVOK BECMG 3006/3009 01014KT TEMPO 3009/3016 01018G30KT

Waarnemingen en weersverwachtingen van meer dan 4000 vliegvelden (METAR en TAF).

De beschikbare stations zijn de gele en rode punten op de kaart.

Ga met uw muis naar het station om de naam te zien.

Klik dan om waarnemingen en weersverwachtingen te zien.

kaart wijzigen: klik op de groene knoppen met een zwart kruis om in te zoomen, op de groene knop met een streepje om uit te zoomen of op de groene pijlen voor aangrenzende kaarten.


METAR-TAF: